createdAt,value
2018-12-27T01:51:29.311Z,4.00
2018-12-27T02:10:56.469Z,4.00
2018-12-27T02:33:57.684Z,4.00
2018-12-27T03:05:56.228Z,3.70
2018-12-27T03:09:07.640Z,3.70
2018-12-27T03:20:11.062Z,3.60
2018-12-27T04:14:15.662Z,3.10
2018-12-27T04:49:22.728Z,3.00
2018-12-27T04:58:12.048Z,3.30
2018-12-27T05:00:54.726Z,3.30
2018-12-27T05:04:17.790Z,3.30
2018-12-27T05:11:04.330Z,3.20
2018-12-27T05:13:58.189Z,3.30
2018-12-27T05:16:45.150Z,3.30
2018-12-27T05:19:20.073Z,3.30
2018-12-27T05:22:04.764Z,3.40
2018-12-27T05:28:06.832Z,3.60
2018-12-27T05:31:01.184Z,3.60
2018-12-27T05:33:56.836Z,3.70
2018-12-27T05:36:52.169Z,3.60
2018-12-27T05:39:36.112Z,3.50
2018-12-27T05:42:30.313Z,3.40
2018-12-27T05:45:18.619Z,3.20
2018-12-27T05:48:09.939Z,3.10
2018-12-27T05:51:17.294Z,3.00
2018-12-27T05:54:08.826Z,3.20
2018-12-27T05:56:58.481Z,2.90
2018-12-27T05:59:48.750Z,2.90
2018-12-27T06:03:05.781Z,2.90
2018-12-27T06:06:08.010Z,2.90
2018-12-27T06:08:51.845Z,2.80
2018-12-27T06:12:32.831Z,2.80
2018-12-27T06:15:19.910Z,2.80
2018-12-27T06:18:25.568Z,2.70
2018-12-27T06:21:38.776Z,2.70
2018-12-27T06:24:21.131Z,2.70
2018-12-27T06:27:22.951Z,2.80
2018-12-27T06:30:11.619Z,2.70
2018-12-27T06:33:09.957Z,2.70
2018-12-27T06:35:53.719Z,2.70
2018-12-27T06:39:03.806Z,2.70
2018-12-27T06:41:47.296Z,2.70
2018-12-27T06:44:20.369Z,2.70
2018-12-27T06:47:47.625Z,2.60
2018-12-27T06:50:29.293Z,2.60
2018-12-27T06:53:45.552Z,2.60
2018-12-27T07:00:17.875Z,2.60
2018-12-27T07:03:21.777Z,2.60
2018-12-27T07:06:29.666Z,2.60
2018-12-27T07:12:24.524Z,2.60
2018-12-27T07:15:31.309Z,2.60
2018-12-27T07:18:48.866Z,2.60
2018-12-27T07:22:12.565Z,2.60
2018-12-27T07:28:24.817Z,2.60
2018-12-27T07:31:26.799Z,2.50
2018-12-27T07:34:28.439Z,2.60
2018-12-27T07:37:24.844Z,2.60
2018-12-27T07:40:31.553Z,2.60
2018-12-27T07:43:28.604Z,2.70
2018-12-27T07:46:52.874Z,2.70
2018-12-27T07:49:48.637Z,2.70
2018-12-27T07:53:18.707Z,2.70
2018-12-27T07:56:04.347Z,2.80
2018-12-27T08:02:31.048Z,2.90
2018-12-27T08:05:42.582Z,2.90
2018-12-27T08:08:36.717Z,2.90
2018-12-27T08:12:01.425Z,2.90
2018-12-27T08:14:57.944Z,2.90
2018-12-27T08:18:12.951Z,3.00
2018-12-27T08:21:24.388Z,3.00
2018-12-27T08:24:17.709Z,3.00
2018-12-27T08:27:47.438Z,3.10
2018-12-27T08:30:38.500Z,3.20
2018-12-27T08:33:26.005Z,3.20
2018-12-27T08:36:22.488Z,3.20
2018-12-27T08:39:39.462Z,3.30
2018-12-27T09:29:08.390Z,4.30
2018-12-27T09:34:41.731Z,4.50
2018-12-27T10:09:37.576Z,5.40
2018-12-27T10:13:43.565Z,5.60
2018-12-27T10:16:43.395Z,5.70
2018-12-27T10:20:27.890Z,5.80
2018-12-27T10:35:48.267Z,6.10
2018-12-27T10:39:13.559Z,6.10
2018-12-27T10:46:35.283Z,6.20
2018-12-27T10:50:09.971Z,6.00
2018-12-27T10:54:13.183Z,6.10
2018-12-27T11:01:58.788Z,6.20
2018-12-27T11:05:15.056Z,6.40
2018-12-27T11:12:55.743Z,6.50
2018-12-27T11:16:09.398Z,6.60
2018-12-27T11:23:46.898Z,6.70
2018-12-27T11:31:59.085Z,6.50
2018-12-27T11:36:01.795Z,6.40
2018-12-27T11:40:25.545Z,6.70
2018-12-27T11:43:53.645Z,6.70
2018-12-27T11:47:23.524Z,7.30
2018-12-27T11:55:10.157Z,6.90
2018-12-27T11:58:42.007Z,7.10
2018-12-27T12:06:12.200Z,7.00
2018-12-27T12:18:16.915Z,7.50
2018-12-27T19:10:15.130Z,4.50
2018-12-27T19:25:26.857Z,4.60
2018-12-27T21:13:45.320Z,4.50
2018-12-27T21:54:51.387Z,4.40
2018-12-27T22:51:40.027Z,4.20
2018-12-27T22:54:20.538Z,4.10
2018-12-27T23:19:13.851Z,4.00
2018-12-27T23:21:53.091Z,4.00
2018-12-27T23:24:35.514Z,4.10
2018-12-27T23:27:13.040Z,4.10
